Time;durP1;ratioP1;P1;durP2;ratioP2;P2;SDS_P1;SDS_P2;PMS_P1;PMS_P2;Temp;Humidity;BMP_temperature;BMP_pressure;BME280_temperature;BME280_humidity;BME280_pressure;Samples;Min_cycle;Max_cycle;Signal;HPM_P1;HPM_P2
2022/07/09 00:02:14;;;;;;;1.58;1.48;;;20.40;70.50;;;;;;5061640;28;20040;-66
2022/07/09 00:04:40;;;;;;;1.05;1.02;;;20.40;70.40;;;;;;5061996;28;20024;-66
2022/07/09 00:07:06;;;;;;;1.42;1.33;;;20.40;70.30;;;;;;5061121;28;20025;-65
2022/07/09 00:09:31;;;;;;;4.18;1.10;;;20.40;70.40;;;;;;5061121;28;20036;-65
2022/07/09 00:11:57;;;;;;;1.42;1.33;;;20.30;70.50;;;;;;5068012;28;20476;-65
2022/07/09 00:14:23;;;;;;;1.23;0.98;;;20.30;70.70;;;;;;5067242;28;20036;-65
2022/07/09 00:16:48;;;;;;;1.52;1.13;;;20.30;70.60;;;;;;5066978;28;20381;-66
2022/07/09 00:19:14;;;;;;;2.67;2.00;;;20.30;70.60;;;;;;5069116;28;20499;-65
2022/07/09 00:21:40;;;;;;;1.92;1.80;;;20.30;70.70;;;;;;5074637;28;20087;-66
2022/07/09 00:24:06;;;;;;;2.58;1.70;;;20.30;70.70;;;;;;5056955;28;20475;-65
2022/07/09 00:26:32;;;;;;;1.45;1.35;;;20.20;70.80;;;;;;5066991;28;20033;-66
2022/07/09 00:28:58;;;;;;;1.45;1.35;;;20.20;70.90;;;;;;5058409;28;20085;-66
2022/07/09 00:31:23;;;;;;;2.17;1.27;;;20.20;70.90;;;;;;5067955;28;20066;-66
2022/07/09 00:33:49;;;;;;;1.70;1.40;;;20.20;71.00;;;;;;5067747;28;20461;-66
2022/07/09 00:36:14;;;;;;;2.10;1.48;;;20.20;71.10;;;;;;5073488;28;20063;-65
2022/07/09 00:38:40;;;;;;;3.78;1.95;;;20.10;71.00;;;;;;5069583;28;20048;-66
2022/07/09 00:41:06;;;;;;;1.92;1.52;;;20.10;71.30;;;;;;5073193;28;20158;-66
2022/07/09 00:43:31;;;;;;;2.10;1.75;;;20.00;71.40;;;;;;5082909;28;20024;-66
2022/07/09 00:45:57;;;;;;;1.95;1.63;;;20.00;71.40;;;;;;5069072;28;20025;-65
2022/07/09 00:48:23;;;;;;;3.15;1.75;;;20.00;71.40;;;;;;5066775;28;20182;-66
2022/07/09 00:50:49;;;;;;;2.08;1.63;;;20.10;71.40;;;;;;5065644;28;20036;-66
2022/07/09 00:56:36;;;;;;;3.20;2.60;;;20.00;71.40;;;;;;5052700;22;20102;-65
2022/07/09 00:59:07;;;;;;;2.83;1.88;;;19.90;71.60;;;;;;5051677;22;20470;-66
2022/07/09 01:01:34;;;;;;;1.33;1.23;;;19.90;71.70;;;;;;5046570;28;20028;-65
2022/07/09 01:04:01;;;;;;;2.75;1.80;;;19.90;71.70;;;;;;5050187;28;20041;-66
2022/07/09 01:06:26;;;;;;;2.78;1.88;;;19.90;71.70;;;;;;5060225;28;20092;-65
2022/07/09 01:08:53;;;;;;;8.35;1.70;;;19.80;71.80;;;;;;5066285;28;20109;-66
2022/07/09 01:11:18;;;;;;;2.53;1.70;;;19.80;71.90;;;;;;5048871;28;20021;-66
2022/07/09 01:13:44;;;;;;;3.17;2.03;;;19.80;71.90;;;;;;5060982;28;20032;-72
2022/07/09 01:16:16;;;;;;;5.80;1.80;;;19.80;71.90;;;;;;5058887;28;20450;-71
2022/07/09 01:18:45;;;;;;;2.17;1.80;;;19.80;71.90;;;;;;5046824;28;20451;-71
2022/07/09 01:21:15;;;;;;;3.53;2.33;;;19.80;72.00;;;;;;5065520;28;20059;-72
2022/07/09 01:23:41;;;;;;;2.65;1.77;;;19.80;72.00;;;;;;5066654;28;20032;-72
2022/07/09 01:26:07;;;;;;;4.03;2.35;;;19.70;72.10;;;;;;5068101;28;20060;-71
2022/07/09 01:28:33;;;;;;;3.38;1.90;;;19.70;72.10;;;;;;5053254;28;20033;-71
2022/07/09 01:30:59;;;;;;;1.63;1.52;;;19.70;72.10;;;;;;5084117;28;20368;-71
2022/07/09 01:33:25;;;;;;;5.03;2.42;;;19.70;72.20;;;;;;5063311;28;20082;-71
2022/07/09 01:35:51;;;;;;;2.10;1.90;;;19.60;72.30;;;;;;5062199;28;20793;-71
2022/07/09 01:38:17;;;;;;;2.00;1.35;;;19.60;72.30;;;;;;5061018;28;20060;-71
2022/07/09 01:40:42;;;;;;;2.65;1.77;;;19.60;72.30;;;;;;5061144;28;20037;-72
2022/07/09 01:43:08;;;;;;;2.08;1.45;;;19.60;72.30;;;;;;5070256;28;20044;-71
2022/07/09 01:45:34;;;;;;;1.90;1.70;;;19.60;72.30;;;;;;5070028;28;20048;-71
2022/07/09 01:48:00;;;;;;;2.13;1.80;;;19.60;72.40;;;;;;5061960;28;20028;-71
2022/07/09 01:50:25;;;;;;;2.15;1.75;;;19.50;72.30;;;;;;5071564;28;20090;-71
2022/07/09 01:52:51;;;;;;;2.80;2.13;;;19.50;72.30;;;;;;5066727;28;20040;-71
2022/07/09 01:55:17;;;;;;;1.98;1.42;;;19.50;72.20;;;;;;5057506;28;20041;-71
2022/07/09 01:57:42;;;;;;;2.38;2.08;;;19.50;72.20;;;;;;5071785;28;20119;-72
2022/07/09 02:00:08;;;;;;;2.30;1.80;;;19.50;72.20;;;;;;5047609;28;20376;-71
2022/07/09 02:02:34;;;;;;;2.20;1.63;;;19.40;72.10;;;;;;5052202;28;20040;-71
2022/07/09 02:05:00;;;;;;;2.20;1.83;;;19.40;72.10;;;;;;5040149;28;20033;-65
2022/07/09 02:07:26;;;;;;;1.67;1.52;;;19.40;72.00;;;;;;5067452;28;20060;-66
2022/07/09 02:09:51;;;;;;;2.75;1.92;;;19.30;71.90;;;;;;5060318;28;20127;-66
2022/07/09 02:12:18;;;;;;;2.13;1.80;;;19.30;72.00;;;;;;5063324;28;20032;-66
2022/07/09 02:14:44;;;;;;;1.95;1.75;;;19.30;72.00;;;;;;5067129;28;20036;-66
2022/07/09 02:17:10;;;;;;;1.98;1.83;;;19.20;72.10;;;;;;5071473;28;20031;-66
2022/07/09 02:19:35;;;;;;;2.75;1.98;;;19.20;72.30;;;;;;5067536;28;20398;-65
2022/07/09 02:22:01;;;;;;;2.88;2.38;;;19.20;72.40;;;;;;5062386;28;20041;-65
2022/07/09 02:24:28;;;;;;;3.95;3.00;;;19.10;73.00;;;;;;5064653;28;20028;-65
2022/07/09 02:26:54;;;;;;;3.50;2.38;;;19.10;73.30;;;;;;5069482;28;20025;-66
2022/07/09 02:29:20;;;;;;;2.88;2.03;;;19.00;73.30;;;;;;5051878;28;20043;-65
2022/07/09 02:31:45;;;;;;;2.88;2.03;;;19.10;73.60;;;;;;5051000;28;20026;-66
2022/07/09 02:34:11;;;;;;;1.67;1.55;;;19.00;73.50;;;;;;5062365;28;20029;-66
2022/07/09 02:36:37;;;;;;;2.30;2.05;;;19.00;73.90;;;;;;5070450;28;20039;-67
2022/07/09 02:39:02;;;;;;;2.88;1.95;;;19.10;73.20;;;;;;5067670;28;20039;-71
2022/07/09 02:41:28;;;;;;;4.75;2.00;;;19.00;73.10;;;;;;5058781;28;20028;-71
2022/07/09 02:43:54;;;;;;;2.70;2.00;;;19.00;73.30;;;;;;5067082;28;20028;-72
2022/07/09 02:46:19;;;;;;;3.30;2.58;;;18.90;73.50;;;;;;5038070;28;20060;-71
2022/07/09 02:48:45;;;;;;;2.45;1.98;;;18.90;73.60;;;;;;5062175;28;20036;-71
2022/07/09 02:51:11;;;;;;;2.88;2.05;;;18.90;73.80;;;;;;5051193;28;20025;-72
2022/07/09 02:53:36;;;;;;;3.25;2.00;;;18.90;73.80;;;;;;5062328;28;20028;-71
2022/07/09 02:56:02;;;;;;;5.53;2.78;;;18.90;74.40;;;;;;5064718;28;20033;-71
2022/07/09 02:58:28;;;;;;;2.72;2.33;;;18.90;74.00;;;;;;5072317;28;20041;-71
2022/07/09 03:00:53;;;;;;;2.83;1.85;;;18.90;74.10;;;;;;5052974;28;20029;-72
2022/07/09 03:03:19;;;;;;;3.40;2.42;;;18.90;74.10;;;;;;5065819;28;20044;-72
2022/07/09 03:05:45;;;;;;;2.42;2.05;;;18.80;74.10;;;;;;5070726;28;20031;-71
2022/07/09 03:08:10;;;;;;;3.20;2.25;;;18.80;74.10;;;;;;5058283;28;20036;-72
2022/07/09 03:10:36;;;;;;;1.80;1.55;;;18.80;74.50;;;;;;5067972;28;20077;-71
2022/07/09 03:13:02;;;;;;;4.35;1.85;;;18.70;74.60;;;;;;5055312;28;20033;-71
2022/07/09 03:15:27;;;;;;;3.22;2.60;;;18.60;74.70;;;;;;5060361;28;20049;-72
2022/07/09 03:17:53;;;;;;;2.25;2.05;;;18.60;74.90;;;;;;5052960;28;20020;-72
2022/07/09 03:20:19;;;;;;;1.75;1.65;;;18.60;74.90;;;;;;5057197;28;20503;-72
2022/07/09 03:22:44;;;;;;;6.60;3.13;;;18.60;74.90;;;;;;5026850;28;20047;-72
2022/07/09 03:25:10;;;;;;;3.85;2.78;;;18.60;75.10;;;;;;5054727;28;20112;-71
2022/07/09 03:27:36;;;;;;;2.70;2.42;;;18.60;75.10;;;;;;5059475;28;20028;-72
2022/07/09 03:30:04;;;;;;;4.32;2.50;;;18.60;75.10;;;;;;5055417;28;20078;-71
2022/07/09 03:32:30;;;;;;;2.85;2.65;;;18.60;75.20;;;;;;5045455;28;20368;-72
2022/07/09 03:34:56;;;;;;;3.83;2.17;;;18.60;75.20;;;;;;5056082;28;20052;-72
2022/07/09 03:37:22;;;;;;;2.75;2.45;;;18.60;75.30;;;;;;5059723;28;20075;-72
2022/07/09 03:39:48;;;;;;;4.15;2.60;;;18.60;75.20;;;;;;5067414;28;20028;-71
2022/07/09 03:42:14;;;;;;;3.88;2.45;;;18.60;75.50;;;;;;5068564;28;20044;-72
2022/07/09 03:44:40;;;;;;;4.50;2.85;;;18.60;75.60;;;;;;5069893;28;20086;-66
2022/07/09 03:47:06;;;;;;;2.72;2.38;;;18.60;75.60;;;;;;5047860;28;20021;-65
2022/07/09 03:49:33;;;;;;;3.33;2.95;;;18.60;76.20;;;;;;5081111;28;20033;-66
2022/07/09 03:51:59;;;;;;;6.60;3.53;;;18.70;75.80;;;;;;5057256;28;20463;-66
2022/07/09 03:54:24;;;;;;;2.70;2.17;;;18.60;75.90;;;;;;5055901;28;20082;-66
2022/07/09 03:56:51;;;;;;;5.15;2.58;;;18.70;75.80;;;;;;5047155;28;20022;-66
2022/07/09 03:59:17;;;;;;;2.80;2.60;;;18.70;75.70;;;;;;5052788;28;20040;-66
2022/07/09 04:01:43;;;;;;;6.47;2.70;;;18.70;75.90;;;;;;5050469;28;20726;-66
2022/07/09 04:04:09;;;;;;;3.05;2.75;;;18.70;75.90;;;;;;5038070;28;20176;-66
2022/07/09 04:06:35;;;;;;;2.83;2.22;;;18.70;76.10;;;;;;5043267;28;20164;-66
2022/07/09 04:09:04;;;;;;;4.75;3.63;;;18.80;76.10;;;;;;5042947;28;20028;-66
2022/07/09 04:11:31;;;;;;;2.70;2.47;;;18.70;76.20;;;;;;5045297;28;20036;-66
2022/07/09 04:13:57;;;;;;;3.97;1.90;;;18.80;76.30;;;;;;5080199;28;20059;-66
2022/07/09 04:16:22;;;;;;;2.67;2.47;;;18.80;76.20;;;;;;5056234;28;20032;-66
2022/07/09 04:18:48;;;;;;;4.28;2.72;;;18.80;76.20;;;;;;5059194;28;20194;-66
2022/07/09 04:21:14;;;;;;;3.25;2.72;;;18.80;76.20;;;;;;5062682;28;20028;-66
2022/07/09 04:23:39;;;;;;;4.28;3.15;;;18.80;76.30;;;;;;5069216;28;20079;-66
2022/07/09 04:26:05;;;;;;;3.67;2.88;;;18.80;76.20;;;;;;5055865;28;20467;-66
2022/07/09 04:28:31;;;;;;;3.17;2.88;;;18.90;76.20;;;;;;5067647;28;20452;-66
2022/07/09 04:30:56;;;;;;;4.03;3.55;;;18.90;76.10;;;;;;5064193;28;20029;-66
2022/07/09 04:33:22;;;;;;;4.93;3.63;;;18.90;76.10;;;;;;5068179;28;20454;-65
2022/07/09 04:35:48;;;;;;;3.75;2.80;;;19.00;76.10;;;;;;5064383;28;20078;-66
2022/07/09 04:38:13;;;;;;;2.53;2.33;;;19.00;76.00;;;;;;5057635;28;20037;-66
2022/07/09 04:40:40;;;;;;;3.70;3.10;;;19.00;76.00;;;;;;5049377;28;20032;-66
2022/07/09 04:43:06;;;;;;;5.80;2.55;;;18.90;76.00;;;;;;5048132;28;20053;-66
2022/07/09 04:45:32;;;;;;;4.80;3.05;;;19.00;76.30;;;;;;5059207;28;20116;-66
2022/07/09 04:47:59;;;;;;;3.60;3.28;;;19.00;76.30;;;;;;5057083;28;20104;-66
2022/07/09 04:50:25;;;;;;;3.83;2.80;;;19.00;76.30;;;;;;5064925;28;20028;-66
2022/07/09 04:52:50;;;;;;;5.88;3.30;;;19.10;76.20;;;;;;5069160;28;20386;-66
2022/07/09 04:55:16;;;;;;;5.68;3.55;;;19.10;76.10;;;;;;5042456;28;20112;-66
2022/07/09 04:57:43;;;;;;;5.63;3.47;;;19.10;76.00;;;;;;5068389;28;20353;-66
2022/07/09 05:00:10;;;;;;;4.20;3.33;;;19.10;76.00;;;;;;5060949;28;20039;-66
2022/07/09 05:02:36;;;;;;;3.97;3.22;;;19.10;76.20;;;;;;5066751;28;20041;-66
2022/07/09 05:05:03;;;;;;;2.80;2.60;;;19.20;76.20;;;;;;5069306;28;20025;-66
2022/07/09 05:07:30;;;;;;;3.38;3.08;;;19.20;76.00;;;;;;5052308;28;20052;-66
2022/07/09 05:09:56;;;;;;;3.50;2.88;;;19.30;76.00;;;;;;5069349;28;20029;-66
2022/07/09 05:12:22;;;;;;;3.90;3.55;;;19.30;75.80;;;;;;5052435;28;20036;-66
2022/07/09 05:14:47;;;;;;;4.07;3.03;;;19.40;75.80;;;;;;5069203;28;20032;-66
2022/07/09 05:17:13;;;;;;;3.55;2.70;;;19.50;76.30;;;;;;5036455;28;20034;-66
2022/07/09 05:19:39;;;;;;;3.30;2.78;;;19.60;75.50;;;;;;5070268;28;20087;-66
2022/07/09 05:22:05;;;;;;;3.17;2.60;;;19.70;75.50;;;;;;5040149;28;20491;-66
2022/07/09 05:24:30;;;;;;;5.55;3.28;;;19.70;75.40;;;;;;5072511;28;20032;-66
2022/07/09 05:26:56;;;;;;;3.25;2.67;;;19.80;75.40;;;;;;5055162;28;20098;-66
2022/07/09 05:29:22;;;;;;;3.38;2.50;;;19.90;75.40;;;;;;5072580;28;20101;-66
2022/07/09 05:31:49;;;;;;;2.97;2.53;;;19.90;75.20;;;;;;5062392;28;20068;-66
2022/07/09 05:34:15;;;;;;;3.85;2.38;;;20.00;75.20;;;;;;5058263;28;20033;-71
2022/07/09 05:36:41;;;;;;;3.67;2.75;;;20.10;75.10;;;;;;5064759;28;20032;-72
2022/07/09 05:39:07;;;;;;;2.70;2.38;;;20.20;75.00;;;;;;5066949;28;20025;-71
2022/07/09 05:41:33;;;;;;;6.82;3.00;;;20.20;74.90;;;;;;5060760;28;20040;-72
2022/07/09 05:43:59;;;;;;;3.33;2.10;;;20.30;74.80;;;;;;5069914;28;20083;-72
2022/07/09 05:46:25;;;;;;;2.03;1.58;;;20.30;74.70;;;;;;5065158;28;20102;-72
2022/07/09 05:48:51;;;;;;;3.40;1.83;;;20.40;74.60;;;;;;5062756;28;20016;-72
2022/07/09 05:51:17;;;;;;;2.08;1.98;;;20.50;74.50;;;;;;5061124;28;20083;-72
2022/07/09 05:53:43;;;;;;;3.45;2.20;;;20.50;74.60;;;;;;5070050;28;20032;-71
2022/07/09 05:56:09;;;;;;;3.15;2.17;;;20.50;74.60;;;;;;5060134;28;20315;-72
2022/07/09 05:58:35;;;;;;;2.35;1.40;;;20.60;74.50;;;;;;5065616;28;20072;-72
2022/07/09 06:01:01;;;;;;;2.08;1.90;;;20.60;74.30;;;;;;5059167;28;20082;-72
2022/07/09 06:03:27;;;;;;;2.70;2.08;;;20.70;74.30;;;;;;5067777;28;20024;-71
2022/07/09 06:05:52;;;;;;;2.10;1.60;;;20.80;74.30;;;;;;5067815;28;20039;-71
2022/07/09 06:08:18;;;;;;;3.97;2.05;;;20.80;74.10;;;;;;5061190;28;20509;-72
2022/07/09 06:10:44;;;;;;;2.08;1.83;;;20.80;73.90;;;;;;5055542;28;20028;-72
2022/07/09 06:13:09;;;;;;;4.20;1.30;;;20.90;73.90;;;;;;5062852;28;20063;-72
2022/07/09 06:15:35;;;;;;;2.58;1.63;;;20.90;73.80;;;;;;5062668;28;20033;-71
2022/07/09 06:18:01;;;;;;;1.60;1.50;;;20.90;73.60;;;;;;5059112;28;20040;-72
2022/07/09 06:20:27;;;;;;;2.67;1.70;;;21.00;73.50;;;;;;5060529;28;20132;-72
2022/07/09 06:22:53;;;;;;;2.22;1.55;;;20.90;73.20;;;;;;5064795;28;20036;-72
2022/07/09 06:25:18;;;;;;;2.08;1.27;;;21.00;73.30;;;;;;5063286;28;20147;-72
2022/07/09 06:27:44;;;;;;;1.08;1.00;;;21.00;73.20;;;;;;5055947;28;20090;-72
2022/07/09 06:30:10;;;;;;;1.13;0.90;;;21.10;73.00;;;;;;5063723;28;20083;-72
2022/07/09 06:32:35;;;;;;;1.38;0.80;;;21.20;72.60;;;;;;5066508;28;20066;-71
2022/07/09 06:35:02;;;;;;;1.27;1.13;;;21.20;72.50;;;;;;5050289;28;20105;-72
2022/07/09 06:37:28;;;;;;;0.93;0.93;;;21.30;72.40;;;;;;5067417;28;20028;-67
2022/07/09 06:39:56;;;;;;;1.27;1.02;;;21.40;72.10;;;;;;5069279;28;20040;-65
2022/07/09 06:42:22;;;;;;;0.80;0.80;;;21.50;71.70;;;;;;5059554;28;20032;-70
2022/07/09 06:44:48;;;;;;;1.05;1.05;;;21.60;71.40;;;;;;5069366;28;20031;-72
2022/07/09 06:47:14;;;;;;;1.20;1.10;;;21.60;71.20;;;;;;5046466;28;20683;-72
2022/07/09 06:49:40;;;;;;;0.70;0.70;;;21.80;71.10;;;;;;5048254;28;20033;-72
2022/07/09 06:52:07;;;;;;;0.95;0.60;;;21.90;70.80;;;;;;5046091;28;20070;-72
2022/07/09 06:54:34;;;;;;;1.17;0.98;;;21.90;70.70;;;;;;5062913;28;20077;-72
2022/07/09 06:57:00;;;;;;;3.13;1.58;;;22.00;70.50;;;;;;5058916;28;20043;-72
2022/07/09 06:59:25;;;;;;;0.90;0.90;;;22.00;70.20;;;;;;5060041;28;20037;-72
2022/07/09 07:01:51;;;;;;;1.10;0.90;;;22.00;70.20;;;;;;5064650;28;20056;-72
2022/07/09 07:04:17;;;;;;;1.27;1.17;;;21.90;69.90;;;;;;5072843;28;20035;-70
2022/07/09 07:06:45;;;;;;;1.38;0.73;;;21.80;70.00;;;;;;5042849;28;20037;-74
2022/07/09 07:09:10;;;;;;;0.88;0.75;;;21.80;70.10;;;;;;5043478;28;20509;-72
2022/07/09 07:11:36;;;;;;;0.80;0.80;;;21.90;70.00;;;;;;5060151;28;20105;-72
2022/07/09 07:14:02;;;;;;;1.08;0.90;;;22.00;69.90;;;;;;5059912;28;20083;-66
2022/07/09 07:16:27;;;;;;;1.25;0.95;;;22.20;69.60;;;;;;5061500;28;20560;-66
2022/07/09 07:18:54;;;;;;;1.20;1.10;;;22.30;68.80;;;;;;5058748;28;20041;-66
2022/07/09 07:21:20;;;;;;;0.90;0.82;;;22.40;68.90;;;;;;5057581;28;20060;-72
2022/07/09 07:23:45;;;;;;;5.05;1.10;;;22.40;68.80;;;;;;5059688;28;20060;-72
2022/07/09 07:26:11;;;;;;;1.20;1.02;;;22.40;68.60;;;;;;5054808;28;20078;-72
2022/07/09 07:28:37;;;;;;;1.45;0.90;;;22.50;68.30;;;;;;5064544;28;20144;-71
2022/07/09 07:31:02;;;;;;;2.95;1.25;;;22.50;68.30;;;;;;5044597;28;20356;-72
2022/07/09 07:33:28;;;;;;;0.98;0.80;;;22.50;68.20;;;;;;5055178;28;20105;-72
2022/07/09 07:35:57;;;;;;;1.13;0.85;;;22.50;68.30;;;;;;5062676;28;20068;-71
2022/07/09 07:38:27;;;;;;;0.93;0.93;;;22.60;67.90;;;;;;5049018;28;20120;-72
2022/07/09 07:40:53;;;;;;;0.70;0.68;;;22.70;67.80;;;;;;5065536;28;20064;-72
2022/07/09 07:43:19;;;;;;;1.23;1.02;;;22.80;67.60;;;;;;5055700;28;20598;-72
2022/07/09 07:45:44;;;;;;;0.63;0.60;;;22.80;67.20;;;;;;5062733;28;20061;-72
2022/07/09 07:48:10;;;;;;;1.10;1.10;;;22.90;67.20;;;;;;5047063;28;20037;-72
2022/07/09 07:50:38;;;;;;;2.05;1.20;;;22.90;67.30;;;;;;5042339;28;20078;-65
2022/07/09 07:53:05;;;;;;;1.33;1.05;;;23.00;67.00;;;;;;5056757;28;20047;-66
2022/07/09 07:55:31;;;;;;;1.05;0.73;;;23.00;67.10;;;;;;5048798;28;20037;-66
2022/07/09 07:57:56;;;;;;;1.20;0.70;;;23.00;67.10;;;;;;5046071;28;20071;-72
2022/07/09 08:00:22;;;;;;;1.27;1.08;;;23.20;66.90;;;;;;5048123;28;20047;-72
2022/07/09 08:02:48;;;;;;;1.17;1.08;;;23.20;67.00;;;;;;5048699;28;20047;-71
2022/07/09 08:05:13;;;;;;;1.20;1.00;;;23.30;66.40;;;;;;5049247;28;20029;-72
2022/07/09 08:07:39;;;;;;;0.70;0.70;;;23.40;66.10;;;;;;5057928;28;20384;-72
2022/07/09 08:10:05;;;;;;;0.90;0.90;;;23.50;66.00;;;;;;5048698;28;20108;-72
2022/07/09 08:12:31;;;;;;;0.75;0.75;;;23.60;65.50;;;;;;5056895;28;22113;-72
2022/07/09 08:14:57;;;;;;;2.47;0.60;;;23.70;65.60;;;;;;5051494;28;20031;-72
2022/07/09 08:17:23;;;;;;;5.35;1.38;;;23.80;65.50;;;;;;5050091;28;20120;-73
2022/07/09 08:19:48;;;;;;;1.20;1.10;;;23.80;65.10;;;;;;5056281;28;20886;-73
2022/07/09 08:22:14;;;;;;;0.93;0.90;;;23.70;65.20;;;;;;5047299;28;20071;-66
2022/07/09 08:24:40;;;;;;;0.73;0.73;;;23.80;65.40;;;;;;5061774;28;20078;-72
2022/07/09 08:27:05;;;;;;;1.38;1.00;;;23.90;65.30;;;;;;5068550;28;20052;-72
2022/07/09 08:29:31;;;;;;;1.17;0.80;;;23.90;64.80;;;;;;5053617;28;20033;-66
2022/07/09 08:31:57;;;;;;;0.98;0.88;;;23.90;65.50;;;;;;5053268;28;20116;-66
2022/07/09 08:34:22;;;;;;;0.77;0.77;;;24.00;65.00;;;;;;5030529;28;20033;-65
2022/07/09 08:36:48;;;;;;;1.02;1.02;;;24.00;65.00;;;;;;5052241;28;20049;-65
2022/07/09 08:39:14;;;;;;;1.52;1.38;;;24.00;64.90;;;;;;5046877;28;20041;-65
2022/07/09 08:41:39;;;;;;;1.75;1.00;;;24.10;64.30;;;;;;5049574;28;20087;-66
2022/07/09 08:44:09;;;;;;;0.80;0.80;;;24.10;63.90;;;;;;5056609;28;20475;-65
2022/07/09 08:46:35;;;;;;;0.73;0.73;;;24.00;63.00;;;;;;5053722;28;20029;-72
2022/07/09 08:49:02;;;;;;;2.78;1.85;;;24.00;63.10;;;;;;5067860;28;20026;-72
2022/07/09 08:51:29;;;;;;;1.13;1.08;;;24.10;63.30;;;;;;5049387;28;20497;-72
2022/07/09 08:53:56;;;;;;;1.05;0.98;;;24.20;63.10;;;;;;5050585;28;20028;-72
2022/07/09 08:56:22;;;;;;;1.80;0.90;;;24.20;63.00;;;;;;5044340;28;20500;-72
2022/07/09 08:58:47;;;;;;;0.70;0.70;;;24.20;63.20;;;;;;5037327;28;20106;-72
2022/07/09 09:01:14;;;;;;;0.90;0.90;;;24.20;63.30;;;;;;5042298;28;20119;-66
2022/07/09 09:03:42;;;;;;;0.80;0.80;;;24.10;62.70;;;;;;5059465;28;20087;-65
2022/07/09 09:06:09;;;;;;;1.90;1.75;;;23.90;63.10;;;;;;5040144;28;20431;-65
2022/07/09 09:08:37;;;;;;;0.80;0.80;;;23.80;63.50;;;;;;5040749;28;20040;-71
2022/07/09 09:11:04;;;;;;;1.45;1.35;;;23.80;63.60;;;;;;5041821;28;20025;-72
2022/07/09 09:13:36;;;;;;;1.45;1.30;;;23.90;63.70;;;;;;5037984;28;20113;-72
2022/07/09 09:16:12;;;;;;;2.35;1.40;;;23.80;63.90;;;;;;5043877;28;20044;-72
2022/07/09 09:18:43;;;;;;;3.15;1.45;;;23.70;64.10;;;;;;5065025;28;20064;-72
2022/07/09 09:21:10;;;;;;;1.58;1.48;;;23.70;64.40;;;;;;5051829;28;20036;-72
2022/07/09 09:23:57;;;;;;;2.00;1.30;;;23.80;64.50;;;;;;5049087;28;20040;-72
2022/07/09 09:26:25;;;;;;;1.70;1.60;;;24.00;64.20;;;;;;5039493;28;20025;-65
2022/07/09 09:28:56;;;;;;;2.47;2.28;;;24.10;64.00;;;;;;5044812;28;20029;-72
2022/07/09 09:31:28;;;;;;;2.78;1.45;;;24.20;63.40;;;;;;5035192;28;20450;-66
2022/07/09 09:33:57;;;;;;;1.90;1.58;;;24.10;63.70;;;;;;5045684;28;20033;-66
2022/07/09 09:36:32;;;;;;;3.05;2.10;;;24.20;63.80;;;;;;5048945;28;20025;-65
2022/07/09 09:39:15;;;;;;;2.35;1.48;;;24.00;63.90;;;;;;5046112;28;20441;-66
2022/07/09 09:41:43;;;;;;;1.83;1.73;;;23.90;64.20;;;;;;5061192;28;20041;-66
2022/07/09 09:44:11;;;;;;;1.85;1.70;;;23.80;64.70;;;;;;5055493;28;20056;-72
2022/07/09 09:46:38;;;;;;;2.13;2.00;;;23.80;64.90;;;;;;5041741;28;20029;-72
2022/07/09 09:49:08;;;;;;;4.85;1.95;;;23.80;64.90;;;;;;5046462;28;20029;-65
2022/07/09 09:51:41;;;;;;;2.50;2.15;;;23.90;65.00;;;;;;5044752;28;20862;-65
2022/07/09 09:54:09;;;;;;;2.50;2.30;;;23.80;64.80;;;;;;5036178;28;20445;-65
2022/07/09 09:56:35;;;;;;;2.70;1.38;;;23.90;64.70;;;;;;5038863;28;20036;-65
2022/07/09 09:59:01;;;;;;;3.40;2.00;;;24.00;64.50;;;;;;5044107;28;20052;-72
2022/07/09 10:01:28;;;;;;;1.85;1.60;;;24.00;64.10;;;;;;5042258;28;20063;-72
2022/07/09 10:03:55;;;;;;;2.03;1.40;;;24.10;64.20;;;;;;5054847;28;20713;-72
2022/07/09 10:06:21;;;;;;;1.90;1.67;;;24.10;64.20;;;;;;5044247;28;20506;-65
2022/07/09 10:08:47;;;;;;;1.63;1.50;;;24.10;64.20;;;;;;5037345;28;20128;-65
2022/07/09 10:11:12;;;;;;;1.58;1.27;;;24.00;64.40;;;;;;5035873;28;20115;-72
2022/07/09 10:13:49;;;;;;;1.08;0.80;;;24.00;64.50;;;;;;5042882;28;20041;-72
2022/07/09 10:16:15;;;;;;;1.48;1.20;;;24.10;64.40;;;;;;5041104;28;20108;-72
2022/07/09 10:19:01;;;;;;;1.83;1.20;;;24.10;64.40;;;;;;5043363;28;20129;-72
2022/07/09 10:21:51;;;;;;;1.13;1.00;;;24.00;64.20;;;;;;5043719;28;20041;-72
2022/07/09 10:24:26;;;;;;;2.92;1.15;;;24.00;64.00;;;;;;5042956;28;20482;-66
2022/07/09 10:26:52;;;;;;;1.40;1.25;;;23.80;63.90;;;;;;5041609;28;20052;-66
2022/07/09 10:29:29;;;;;;;1.67;1.42;;;23.70;63.50;;;;;;5042837;28;20064;-66
2022/07/09 10:31:56;;;;;;;0.95;0.75;;;23.70;63.50;;;;;;5053139;28;20463;-66
2022/07/09 10:34:28;;;;;;;1.60;0.98;;;23.70;63.40;;;;;;5045371;28;20040;-65
2022/07/09 10:37:04;;;;;;;3.90;1.35;;;23.70;63.40;;;;;;5033659;28;20113;-66
2022/07/09 10:39:31;;;;;;;0.80;0.80;;;23.80;63.10;;;;;;5040627;28;20033;-66
2022/07/09 10:42:16;;;;;;;0.88;0.88;;;23.90;62.50;;;;;;5043062;28;20701;-72
2022/07/09 10:44:42;;;;;;;0.82;0.82;;;24.10;62.40;;;;;;5053165;28;20039;-72
2022/07/09 10:47:08;;;;;;;0.75;0.52;;;24.30;61.70;;;;;;5036205;28;20592;-72
2022/07/09 10:49:35;;;;;;;0.57;0.57;;;24.60;61.40;;;;;;5037824;28;20038;-72
2022/07/09 10:52:01;;;;;;;1.30;0.55;;;24.90;60.10;;;;;;5038040;28;20112;-72
2022/07/09 10:54:27;;;;;;;0.60;0.60;;;25.00;58.90;;;;;;5059207;28;20048;-72
2022/07/09 10:56:54;;;;;;;0.98;0.47;;;25.20;58.30;;;;;;5039350;28;20036;-72
2022/07/09 10:59:21;;;;;;;0.55;0.55;;;25.40;58.10;;;;;;5034573;28;20424;-72
2022/07/09 11:01:47;;;;;;;1.17;0.95;;;25.60;58.20;;;;;;5035667;28;20033;-72
2022/07/09 11:04:29;;;;;;;0.65;0.63;;;25.70;58.10;;;;;;5041619;28;20380;-72
2022/07/09 11:06:56;;;;;;;0.60;0.60;;;25.80;57.00;;;;;;5036696;28;20047;-72
2022/07/09 11:09:24;;;;;;;0.50;0.50;;;25.80;57.10;;;;;;5045891;28;20044;-72
2022/07/09 11:11:50;;;;;;;0.47;0.47;;;25.90;56.50;;;;;;5043894;28;20028;-72
2022/07/09 11:14:16;;;;;;;1.58;0.93;;;26.10;56.30;;;;;;5039458;28;20143;-72
2022/07/09 11:16:42;;;;;;;0.50;0.50;;;26.10;55.90;;;;;;5037554;28;20392;-72
2022/07/09 11:19:21;;;;;;;0.60;0.60;;;26.30;55.30;;;;;;5042066;28;20036;-72
2022/07/09 11:21:47;;;;;;;0.50;0.50;;;26.30;55.10;;;;;;5037431;28;20064;-72
2022/07/09 11:24:19;;;;;;;0.60;0.60;;;26.40;55.20;;;;;;5046213;28;20037;-72
2022/07/09 11:26:46;;;;;;;0.43;0.43;;;26.50;55.10;;;;;;5059728;28;20040;-72
2022/07/09 11:29:13;;;;;;;0.60;0.60;;;26.50;54.60;;;;;;5039562;28;20048;-72
2022/07/09 11:31:52;;;;;;;0.63;0.55;;;26.30;54.90;;;;;;5040793;28;20088;-72
2022/07/09 11:34:19;;;;;;;0.60;0.50;;;26.20;55.10;;;;;;5041661;28;20028;-72
2022/07/09 11:36:52;;;;;;;0.52;0.52;;;26.20;55.20;;;;;;5045413;28;20415;-71
2022/07/09 11:39:24;;;;;;;1.05;0.70;;;26.50;54.20;;;;;;5042799;28;20122;-71
2022/07/09 11:41:51;;;;;;;0.68;0.60;;;26.50;53.30;;;;;;5043917;28;20025;-72
2022/07/09 11:44:22;;;;;;;0.60;0.60;;;26.60;52.80;;;;;;5046964;28;20052;-72
2022/07/09 11:47:03;;;;;;;0.50;0.50;;;26.60;52.00;;;;;;5034633;28;20134;-72
2022/07/09 11:49:40;;;;;;;0.43;0.43;;;26.40;52.20;;;;;;5047437;28;20078;-71
2022/07/09 11:52:22;;;;;;;0.50;0.50;;;26.20;52.40;;;;;;5065394;28;20025;-71
2022/07/09 11:55:04;;;;;;;3.67;1.15;;;26.10;52.80;;;;;;5035586;28;20510;-71
2022/07/09 11:57:32;;;;;;;0.50;0.50;;;26.20;52.80;;;;;;5033562;28;20325;-71
2022/07/09 11:59:58;;;;;;;0.57;0.57;;;26.10;52.70;;;;;;5070845;28;20067;-71
2022/07/09 12:02:32;;;;;;;0.40;0.40;;;26.10;52.20;;;;;;5048544;28;20044;-68
2022/07/09 12:05:01;;;;;;;0.60;0.60;;;26.40;52.20;;;;;;5047427;28;20045;-68
2022/07/09 12:07:27;;;;;;;0.60;0.60;;;26.70;51.80;;;;;;5048313;28;20021;-69
2022/07/09 12:10:00;;;;;;;0.52;0.52;;;26.90;51.40;;;;;;5050359;28;20867;-69
2022/07/09 12:12:27;;;;;;;1.00;0.80;;;26.90;50.90;;;;;;5063281;28;20099;-71
2022/07/09 12:14:54;;;;;;;0.47;0.47;;;26.80;50.10;;;;;;5049898;28;20036;-70
2022/07/09 12:17:24;;;;;;;0.57;0.40;;;26.50;50.10;;;;;;5052101;28;20431;-71
2022/07/09 12:19:51;;;;;;;0.47;0.47;;;26.50;50.60;;;;;;5059817;28;20100;-70
2022/07/09 12:22:16;;;;;;;0.60;0.60;;;26.70;48.80;;;;;;5043859;28;20036;-71
2022/07/09 12:24:42;;;;;;;0.50;0.50;;;26.80;48.30;;;;;;5043172;28;20029;-71
2022/07/09 12:27:08;;;;;;;0.40;0.40;;;27.00;48.70;;;;;;5023212;28;20033;-71
2022/07/09 12:29:34;;;;;;;0.47;0.47;;;27.30;48.70;;;;;;5045541;28;20048;-71
2022/07/09 12:32:00;;;;;;;1.70;0.90;;;27.60;48.20;;;;;;5045459;28;20029;-71
2022/07/09 12:34:26;;;;;;;1.10;0.60;;;27.70;47.70;;;;;;5045336;28;20037;-70
2022/07/09 12:36:52;;;;;;;0.63;0.52;;;27.90;47.20;;;;;;5047347;28;20400;-69
2022/07/09 12:39:17;;;;;;;0.52;0.52;;;27.80;47.50;;;;;;5046860;28;20460;-69
2022/07/09 12:41:43;;;;;;;0.52;0.52;;;27.80;48.10;;;;;;5045733;28;20037;-69
2022/07/09 12:44:09;;;;;;;0.50;0.50;;;27.90;48.50;;;;;;5044199;28;20037;-70
2022/07/09 12:46:36;;;;;;;0.40;0.40;;;28.10;47.70;;;;;;5043552;28;20076;-70
2022/07/09 12:49:01;;;;;;;2.15;0.80;;;28.00;47.30;;;;;;5043416;28;20025;-70
2022/07/09 12:51:27;;;;;;;0.75;0.75;;;27.70;47.50;;;;;;5045885;28;20063;-71